createdAt,value
2022-08-17T09:21:26.693Z,34.73
2022-08-17T09:24:05.056Z,34.20
2022-08-17T09:26:39.506Z,34.77
2022-08-17T09:29:13.642Z,34.07
2022-08-17T09:31:55.171Z,34.87
2022-08-17T09:34:39.748Z,35.19
2022-08-17T09:37:25.290Z,36.60
2022-08-17T09:40:07.506Z,36.99
2022-08-17T09:42:45.439Z,36.92
2022-08-17T09:45:28.977Z,35.57
2022-08-17T09:48:05.033Z,34.54
2022-08-17T09:51:04.174Z,35.54
2022-08-17T09:53:34.514Z,35.76
2022-08-17T09:56:20.109Z,35.81
2022-08-17T09:59:11.334Z,36.16
2022-08-17T10:01:44.819Z,36.76
2022-08-17T10:04:29.934Z,37.17
2022-08-17T10:07:07.351Z,37.06
2022-08-17T10:09:55.973Z,35.80
2022-08-17T10:12:37.228Z,36.40
2022-08-17T10:15:22.513Z,36.26
2022-08-17T10:18:09.538Z,36.77
2022-08-17T10:20:49.263Z,36.87
2022-08-17T10:23:37.703Z,38.65
2022-08-17T10:26:17.441Z,38.67
2022-08-17T10:28:55.126Z,38.39
2022-08-17T10:31:35.169Z,37.01
2022-08-17T10:34:38.712Z,38.50
2022-08-17T10:38:02.945Z,38.96
2022-08-17T10:40:39.769Z,38.31
2022-08-17T10:43:33.055Z,37.83
2022-08-17T10:46:31.410Z,37.82
2022-08-17T10:49:16.901Z,38.12
2022-08-17T10:51:48.193Z,38.83
2022-08-17T10:54:40.016Z,38.92
2022-08-17T10:57:38.445Z,39.25
2022-08-17T11:00:15.986Z,40.02
2022-08-17T11:02:51.104Z,40.15
2022-08-17T11:05:43.442Z,40.19
2022-08-17T11:08:41.087Z,39.83
2022-08-17T11:11:27.421Z,38.67
2022-08-17T11:14:17.153Z,39.95
2022-08-17T11:17:07.556Z,40.00
2022-08-17T11:19:51.271Z,40.10
2022-08-17T11:22:42.872Z,40.48
2022-08-17T11:25:17.819Z,39.72
2022-08-17T11:27:53.952Z,38.91
2022-08-17T11:30:48.499Z,38.68
2022-08-17T11:33:57.700Z,38.22
2022-08-17T11:36:54.701Z,39.02
2022-08-17T11:39:39.015Z,39.89
2022-08-17T11:42:21.401Z,40.26
2022-08-17T11:44:56.603Z,39.98
2022-08-17T11:47:57.185Z,40.24
2022-08-17T11:51:04.083Z,40.04
2022-08-17T11:57:02.373Z,40.23
2022-08-17T11:59:58.613Z,41.09
2022-08-17T12:02:48.836Z,41.67
2022-08-17T12:05:42.004Z,41.14
2022-08-17T12:08:20.271Z,40.66
2022-08-17T12:11:03.306Z,40.56
2022-08-17T12:13:39.987Z,40.20
2022-08-17T12:16:10.601Z,40.41
2022-08-17T12:18:42.224Z,40.98
2022-08-17T12:21:28.019Z,40.90
2022-08-17T12:24:03.327Z,40.00
2022-08-17T12:26:35.070Z,40.02
2022-08-17T12:29:09.439Z,40.04
2022-08-17T12:31:50.648Z,40.44
2022-08-17T12:34:22.527Z,40.48
2022-08-17T12:37:01.067Z,39.34
2022-08-17T12:49:25.351Z,39.35
2022-08-17T12:52:04.762Z,39.52
2022-08-17T12:54:43.414Z,39.12
2022-08-17T12:57:17.036Z,38.80
2022-08-17T12:59:49.312Z,38.48
2022-08-17T13:02:41.990Z,37.93
2022-08-17T13:05:20.454Z,37.37
2022-08-17T13:07:53.174Z,36.73
2022-08-17T13:10:32.142Z,36.56
2022-08-17T13:13:05.005Z,36.11
2022-08-17T13:15:44.512Z,35.69
2022-08-17T13:18:43.562Z,35.67
2022-08-17T13:21:26.707Z,35.27
2022-08-17T13:24:05.078Z,35.10
2022-08-17T13:26:38.414Z,35.71
2022-08-17T13:29:11.051Z,36.85
2022-08-17T13:31:46.600Z,37.37
2022-08-17T13:34:48.955Z,36.94
2022-08-17T13:37:32.902Z,37.31
2022-08-17T13:40:22.171Z,37.56
2022-08-17T13:42:54.153Z,37.30
2022-08-17T13:45:50.599Z,36.53
2022-08-17T13:48:25.939Z,35.77
2022-08-17T13:51:16.355Z,35.48
2022-08-17T13:53:59.408Z,34.85
2022-08-17T13:56:40.455Z,34.27
2022-08-17T13:59:13.858Z,34.10
2022-08-17T14:01:49.664Z,34.06
2022-08-17T14:04:25.567Z,33.96
2022-08-17T14:06:57.802Z,33.84
2022-08-17T14:09:36.876Z,33.85
2022-08-17T14:12:15.451Z,33.72
2022-08-17T14:14:45.393Z,33.69
2022-08-17T14:17:15.626Z,33.38
2022-08-17T14:19:45.507Z,33.30
2022-08-17T14:22:31.450Z,33.15
2022-08-17T14:25:02.075Z,33.13
2022-08-17T14:27:43.562Z,33.18
2022-08-17T14:30:24.583Z,33.06
2022-08-17T14:32:55.522Z,33.19
2022-08-17T14:35:27.969Z,33.17
2022-08-17T14:37:58.505Z,33.28
2022-08-17T14:40:29.339Z,33.19
2022-08-17T14:43:01.554Z,33.23
2022-08-17T14:45:32.534Z,33.30
2022-08-17T14:48:04.187Z,33.19
2022-08-17T14:50:35.254Z,33.14
2022-08-17T14:53:06.104Z,32.94
2022-08-17T14:55:35.605Z,32.83
2022-08-17T14:58:09.182Z,32.80
2022-08-17T15:00:39.522Z,32.71
2022-08-17T15:03:08.958Z,32.65
2022-08-17T15:05:40.640Z,32.67
2022-08-17T15:08:10.406Z,32.68
2022-08-17T15:10:39.963Z,32.76
2022-08-17T15:13:20.617Z,32.77
2022-08-17T15:15:50.566Z,32.77
2022-08-17T15:18:20.088Z,32.71
2022-08-17T15:20:51.458Z,32.65
2022-08-17T15:23:23.368Z,32.65
2022-08-17T15:25:55.265Z,32.68
2022-08-17T15:28:27.263Z,32.47
2022-08-17T15:30:57.499Z,32.43
2022-08-17T15:33:31.764Z,32.45
2022-08-17T15:36:03.696Z,32.27
2022-08-17T15:38:39.190Z,32.27
2022-08-17T15:41:10.168Z,32.19
2022-08-17T15:43:42.169Z,32.16
2022-08-17T15:46:15.224Z,32.11
2022-08-17T15:48:46.587Z,32.07
2022-08-17T15:51:18.312Z,31.72
2022-08-17T15:53:50.637Z,31.43
2022-08-17T15:56:20.468Z,30.71
2022-08-17T15:58:54.795Z,30.29
2022-08-17T16:03:05.648Z,30.15
2022-08-17T16:04:29.532Z,29.96
2022-08-17T16:07:00.901Z,29.91
2022-08-17T16:09:31.331Z,29.65
2022-08-17T16:12:01.429Z,29.57
2022-08-17T16:14:35.255Z,29.42
2022-08-17T16:17:38.380Z,29.53
2022-08-17T16:20:02.314Z,29.50
2022-08-17T16:22:35.421Z,29.53
2022-08-17T16:25:08.219Z,29.47
2022-08-17T16:27:38.418Z,29.59
2022-08-17T16:30:17.051Z,29.78
2022-08-17T16:32:48.125Z,29.75
2022-08-17T16:35:18.993Z,29.83
2022-08-17T16:37:56.560Z,29.90
2022-08-17T16:40:29.776Z,29.99
2022-08-17T16:43:03.420Z,29.81
2022-08-17T16:45:41.075Z,29.70
2022-08-17T16:48:12.251Z,29.79
2022-08-17T16:50:42.919Z,29.67
2022-08-17T16:53:33.003Z,29.69
2022-08-17T16:56:04.065Z,29.60
2022-08-17T16:58:35.834Z,29.58
2022-08-17T17:01:11.025Z,29.69
2022-08-17T17:03:44.268Z,29.69
2022-08-17T17:06:22.756Z,29.49
2022-08-17T17:08:59.387Z,29.21
2022-08-17T17:11:35.417Z,29.23
2022-08-17T17:14:09.190Z,29.31
2022-08-17T17:16:47.394Z,29.20
2022-08-17T17:19:34.242Z,29.25
2022-08-17T17:22:11.905Z,29.22
2022-08-17T17:24:51.350Z,29.31
2022-08-17T17:27:33.457Z,29.20
2022-08-17T17:30:11.656Z,29.16
2022-08-17T17:32:52.471Z,29.21
2022-08-17T17:35:27.765Z,29.09
2022-08-17T17:38:02.586Z,29.15
2022-08-17T17:40:40.503Z,29.26
2022-08-17T17:43:37.541Z,29.27
2022-08-17T17:46:27.724Z,29.16
2022-08-17T17:49:02.679Z,29.25
2022-08-17T17:52:09.301Z,29.18
2022-08-17T17:54:49.611Z,29.13
2022-08-17T17:57:27.793Z,28.86
2022-08-17T18:00:05.306Z,28.85
2022-08-17T18:02:52.124Z,28.72
2022-08-17T18:06:10.335Z,28.66
2022-08-17T18:08:52.244Z,28.58
2022-08-17T18:11:51.717Z,28.57
2022-08-17T18:14:34.451Z,28.53
2022-08-17T18:17:04.887Z,28.53
2022-08-17T18:19:35.367Z,28.54
2022-08-17T18:22:14.571Z,28.54
2022-08-17T18:24:48.525Z,28.51
2022-08-17T18:27:26.119Z,28.42
2022-08-17T18:30:00.268Z,28.41
2022-08-17T18:32:42.349Z,28.40
2022-08-17T18:35:31.534Z,28.36
2022-08-17T18:38:34.282Z,28.23
2022-08-17T18:41:08.280Z,28.14
2022-08-17T18:43:52.716Z,28.09
2022-08-17T18:46:39.295Z,28.05
2022-08-17T18:49:29.880Z,27.98
2022-08-17T18:52:13.391Z,27.92
2022-08-17T18:55:04.810Z,27.80
2022-08-17T18:57:38.112Z,27.70
2022-08-17T19:09:47.124Z,27.45
2022-08-17T19:12:28.550Z,27.38
2022-08-17T19:14:59.829Z,27.30
2022-08-17T19:17:38.074Z,27.27
2022-08-17T19:20:15.738Z,27.25
2022-08-17T19:22:58.160Z,27.16
2022-08-17T19:25:34.388Z,27.02
2022-08-17T19:28:21.827Z,26.92
2022-08-17T19:30:53.243Z,26.85
2022-08-17T19:33:22.715Z,26.82
2022-08-17T19:36:01.987Z,26.80
2022-08-17T19:38:42.358Z,26.72
2022-08-17T19:41:23.035Z,26.67
2022-08-17T19:44:09.456Z,26.59
2022-08-17T19:47:00.785Z,26.56
2022-08-17T19:49:40.925Z,26.48
2022-08-17T19:52:25.059Z,26.38
2022-08-17T19:55:02.577Z,26.35
2022-08-17T19:57:44.330Z,26.23
2022-08-17T20:00:20.869Z,26.18
2022-08-17T20:06:19.091Z,26.04
2022-08-17T20:12:21.052Z,25.88
2022-08-17T20:14:57.297Z,25.84
2022-08-17T20:17:29.824Z,25.85
2022-08-17T20:20:07.737Z,25.84
2022-08-17T20:26:09.835Z,25.66
2022-08-17T20:28:41.510Z,25.61
2022-08-17T20:31:46.320Z,25.64
2022-08-17T20:34:38.065Z,25.57
2022-08-17T20:37:12.225Z,25.36
2022-08-17T20:39:44.675Z,25.27
2022-08-17T20:42:33.420Z,25.27
2022-08-17T20:45:19.731Z,25.26
2022-08-17T20:48:18.560Z,25.31
2022-08-17T20:50:53.447Z,25.34
2022-08-17T20:54:04.567Z,25.34
2022-08-17T20:56:57.882Z,25.23
2022-08-17T21:00:14.512Z,25.14
2022-08-17T21:02:46.388Z,25.11
2022-08-17T21:05:40.641Z,25.09
2022-08-17T21:08:22.046Z,25.00
2022-08-17T21:14:10.775Z,24.73
2022-08-17T21:16:58.138Z,24.64
2022-08-17T21:20:00.527Z,24.65
2022-08-17T21:22:43.386Z,24.63
2022-08-17T21:25:29.886Z,24.63
2022-08-17T21:28:11.436Z,24.57
2022-08-17T21:30:51.370Z,24.54
2022-08-17T21:33:26.957Z,24.42
2022-08-17T21:36:12.853Z,24.35
2022-08-17T21:38:45.836Z,24.32
2022-08-17T21:41:26.521Z,24.37
2022-08-17T21:44:05.423Z,24.32
2022-08-17T21:46:40.143Z,24.27
2022-08-17T21:49:13.795Z,24.22
2022-08-17T21:51:49.328Z,24.15
2022-08-17T21:54:34.094Z,24.20
2022-08-17T21:57:10.411Z,24.18
2022-08-17T21:59:41.973Z,24.00
2022-08-17T22:02:21.583Z,24.01
2022-08-17T22:05:03.303Z,23.94
2022-08-17T22:07:39.067Z,23.97
2022-08-17T22:10:30.567Z,23.96
2022-08-17T22:13:17.132Z,23.95
2022-08-17T22:15:49.285Z,23.89
2022-08-17T22:18:24.894Z,23.89
2022-08-17T22:20:58.290Z,23.83
2022-08-17T22:23:55.326Z,23.72
2022-08-17T22:26:28.199Z,23.63
2022-08-17T22:29:02.026Z,23.45
2022-08-17T22:31:45.762Z,23.42
2022-08-17T22:34:17.526Z,23.39
2022-08-17T22:36:47.016Z,23.38
2022-08-17T22:39:43.442Z,23.25
2022-08-17T22:42:17.344Z,23.16
2022-08-17T22:44:54.773Z,23.04
2022-08-17T22:47:38.803Z,22.95
2022-08-17T22:50:19.366Z,22.79
2022-08-17T22:53:12.711Z,22.68
2022-08-17T22:56:04.651Z,22.66
2022-08-17T22:58:58.741Z,22.69
2022-08-17T23:01:35.033Z,22.79
2022-08-17T23:04:07.750Z,22.76
2022-08-17T23:06:40.205Z,22.75
2022-08-17T23:09:10.209Z,22.68
2022-08-17T23:11:49.048Z,22.55
2022-08-17T23:14:21.408Z,22.46
2022-08-17T23:16:54.313Z,22.49
2022-08-17T23:19:24.799Z,22.51
2022-08-17T23:21:55.492Z,22.52
2022-08-17T23:24:27.871Z,22.46
2022-08-17T23:27:00.147Z,22.42
2022-08-17T23:29:30.351Z,22.40
2022-08-17T23:32:04.896Z,22.32
2022-08-17T23:34:34.704Z,22.31
2022-08-17T23:37:04.637Z,22.31
2022-08-17T23:39:34.767Z,22.36
2022-08-17T23:42:07.992Z,22.36
2022-08-17T23:44:38.140Z,22.29
2022-08-17T23:47:10.912Z,22.24
2022-08-17T23:49:41.496Z,22.16
2022-08-17T23:52:14.996Z,22.13
2022-08-17T23:54:48.283Z,22.05
2022-08-17T23:57:20.299Z,22.02
